LGKF/EFL METAR and TAF weather

Enter ICAO airport designator
Station Type Date Time Source
LGKF METAR 2022/01/19 17:50 UTC NOAA

LGKF 191750Z 00000KT CAVOK 05/01 Q1029


Station Type Date Time Source
LGKF Decoded METAR 2022/01/19 17:50 UTC NOAA

Kefalhnia Airport , Greece (LGKF) 38-07N 020-30E 22M
Jan 19, 2022 - 12:50 PM EST / 2022.01.19 1750 UTC
Wind: Calm:0
Visibility: greater than 7 mile(s):0
Temperature: 41 F (5 C)
Dew Point: 33 F (1 C)
Relative Humidity: 75%
Pressure (altimeter): 30.39 in. Hg (1029 hPa)
ob: LGKF 191750Z 00000KT CAVOK 05/01 Q1029
cycle: 18

Station Type Date Time Source
LGKF TAF 2011/03/20 15:06 UTC NOAA

TAF LGKF 201400Z 2015/2103 05012KT 9999 FEW020 SCT080 PROB30
TEMPO 2015/2003 6000 RA SCT020 BKN060 PROB30
TEMPO 2015/2021 4000 TSRA SCT015 FEW018CB BKN025

Example: see airport list